sensor_id;sensor_type;location;lat;lon;timestamp;P1;durP1;ratioP1;P2;durP2;ratioP2
12631;SDS011;6381;45.748;12.106;2024-03-08T00:00:02;9.10;;;8.20;;
12631;SDS011;6381;45.748;12.106;2024-03-08T00:02:39;7.43;;;6.73;;
12631;SDS011;6381;45.748;12.106;2024-03-08T00:05:10;8.60;;;7.23;;
12631;SDS011;6381;45.748;12.106;2024-03-08T00:07:41;7.67;;;6.93;;
12631;SDS011;6381;45.748;12.106;2024-03-08T00:10:13;7.90;;;7.13;;
12631;SDS011;6381;45.748;12.106;2024-03-08T00:12:45;7.73;;;6.93;;
12631;SDS011;6381;45.748;12.106;2024-03-08T00:15:16;8.77;;;7.33;;
12631;SDS011;6381;45.748;12.106;2024-03-08T00:17:46;8.23;;;7.30;;
12631;SDS011;6381;45.748;12.106;2024-03-08T00:20:17;7.83;;;7.03;;
12631;SDS011;6381;45.748;12.106;2024-03-08T00:22:47;7.87;;;7.07;;
12631;SDS011;6381;45.748;12.106;2024-03-08T00:25:16;8.10;;;7.30;;
12631;SDS011;6381;45.748;12.106;2024-03-08T00:27:51;8.63;;;7.70;;
12631;SDS011;6381;45.748;12.106;2024-03-08T00:30:23;7.33;;;6.60;;
12631;SDS011;6381;45.748;12.106;2024-03-08T00:32:53;7.83;;;7.03;;
12631;SDS011;6381;45.748;12.106;2024-03-08T00:35:23;8.33;;;7.33;;
12631;SDS011;6381;45.748;12.106;2024-03-08T00:37:53;9.43;;;7.50;;
12631;SDS011;6381;45.748;12.106;2024-03-08T00:40:24;8.10;;;7.30;;
12631;SDS011;6381;45.748;12.106;2024-03-08T00:42:55;8.37;;;7.40;;
12631;SDS011;6381;45.748;12.106;2024-03-08T00:45:25;7.87;;;7.07;;
12631;SDS011;6381;45.748;12.106;2024-03-08T00:47:55;11.53;;;7.60;;
12631;SDS011;6381;45.748;12.106;2024-03-08T00:50:25;9.20;;;7.90;;
12631;SDS011;6381;45.748;12.106;2024-03-08T00:52:55;8.60;;;7.63;;
12631;SDS011;6381;45.748;12.106;2024-03-08T00:55:25;8.40;;;7.30;;
12631;SDS011;6381;45.748;12.106;2024-03-08T00:57:58;8.30;;;7.10;;
12631;SDS011;6381;45.748;12.106;2024-03-08T01:00:28;8.00;;;7.20;;
12631;SDS011;6381;45.748;12.106;2024-03-08T01:02:58;8.90;;;7.57;;
12631;SDS011;6381;45.748;12.106;2024-03-08T01:05:28;8.60;;;7.70;;
12631;SDS011;6381;45.748;12.106;2024-03-08T01:07:58;8.90;;;7.17;;
12631;SDS011;6381;45.748;12.106;2024-03-08T01:10:30;8.20;;;7.40;;
12631;SDS011;6381;45.748;12.106;2024-03-08T01:13:01;9.70;;;7.80;;
12631;SDS011;6381;45.748;12.106;2024-03-08T01:15:31;7.80;;;7.00;;
12631;SDS011;6381;45.748;12.106;2024-03-08T01:18:01;7.67;;;6.87;;
12631;SDS011;6381;45.748;12.106;2024-03-08T01:20:31;8.37;;;7.47;;
12631;SDS011;6381;45.748;12.106;2024-03-08T01:23:01;7.37;;;6.67;;
12631;SDS011;6381;45.748;12.106;2024-03-08T01:25:33;8.73;;;7.70;;
12631;SDS011;6381;45.748;12.106;2024-03-08T01:28:04;8.13;;;7.33;;
12631;SDS011;6381;45.748;12.106;2024-03-08T01:30:35;9.27;;;8.27;;
12631;SDS011;6381;45.748;12.106;2024-03-08T01:33:06;9.20;;;8.10;;
12631;SDS011;6381;45.748;12.106;2024-03-08T01:35:36;9.03;;;8.13;;
12631;SDS011;6381;45.748;12.106;2024-03-08T01:38:08;9.37;;;8.37;;
12631;SDS011;6381;45.748;12.106;2024-03-08T01:40:38;8.87;;;7.97;;
12631;SDS011;6381;45.748;12.106;2024-03-08T01:43:18;8.80;;;7.93;;
12631;SDS011;6381;45.748;12.106;2024-03-08T01:45:48;8.90;;;8.00;;
12631;SDS011;6381;45.748;12.106;2024-03-08T01:48:18;8.93;;;8.03;;
12631;SDS011;6381;45.748;12.106;2024-03-08T01:50:51;9.10;;;8.10;;
12631;SDS011;6381;45.748;12.106;2024-03-08T01:53:23;9.00;;;8.10;;
12631;SDS011;6381;45.748;12.106;2024-03-08T01:55:55;8.20;;;7.33;;
12631;SDS011;6381;45.748;12.106;2024-03-08T01:58:28;8.93;;;7.70;;
12631;SDS011;6381;45.748;12.106;2024-03-08T02:01:00;8.70;;;7.90;;
12631;SDS011;6381;45.748;12.106;2024-03-08T02:03:31;8.17;;;7.47;;
12631;SDS011;6381;45.748;12.106;2024-03-08T02:06:01;8.70;;;7.90;;
12631;SDS011;6381;45.748;12.106;2024-03-08T02:08:32;8.83;;;8.03;;
12631;SDS011;6381;45.748;12.106;2024-03-08T02:11:02;8.50;;;7.70;;
12631;SDS011;6381;45.748;12.106;2024-03-08T02:13:35;8.57;;;7.77;;
12631;SDS011;6381;45.748;12.106;2024-03-08T02:16:05;8.23;;;7.43;;
12631;SDS011;6381;45.748;12.106;2024-03-08T02:18:36;7.73;;;7.03;;
12631;SDS011;6381;45.748;12.106;2024-03-08T02:21:08;8.23;;;7.53;;
12631;SDS011;6381;45.748;12.106;2024-03-08T02:23:39;7.70;;;7.00;;
12631;SDS011;6381;45.748;12.106;2024-03-08T02:26:09;7.93;;;7.10;;
12631;SDS011;6381;45.748;12.106;2024-03-08T02:28:39;8.20;;;7.40;;
12631;SDS011;6381;45.748;12.106;2024-03-08T02:31:10;8.03;;;7.33;;
12631;SDS011;6381;45.748;12.106;2024-03-08T02:33:40;8.97;;;7.30;;
12631;SDS011;6381;45.748;12.106;2024-03-08T02:36:12;8.47;;;7.37;;
12631;SDS011;6381;45.748;12.106;2024-03-08T02:38:42;6.93;;;6.33;;
12631;SDS011;6381;45.748;12.106;2024-03-08T02:41:12;7.27;;;6.57;;
12631;SDS011;6381;45.748;12.106;2024-03-08T02:43:41;6.63;;;6.00;;
12631;SDS011;6381;45.748;12.106;2024-03-08T02:46:13;6.83;;;6.23;;
12631;SDS011;6381;45.748;12.106;2024-03-08T02:48:43;6.23;;;5.63;;
12631;SDS011;6381;45.748;12.106;2024-03-08T02:51:15;6.50;;;5.90;;
12631;SDS011;6381;45.748;12.106;2024-03-08T02:53:45;5.67;;;5.17;;
12631;SDS011;6381;45.748;12.106;2024-03-08T02:56:19;5.53;;;5.00;;
12631;SDS011;6381;45.748;12.106;2024-03-08T02:58:49;4.97;;;4.57;;
12631;SDS011;6381;45.748;12.106;2024-03-08T03:01:19;5.00;;;4.50;;
12631;SDS011;6381;45.748;12.106;2024-03-08T03:03:49;5.50;;;4.47;;
12631;SDS011;6381;45.748;12.106;2024-03-08T03:06:21;4.70;;;4.30;;
12631;SDS011;6381;45.748;12.106;2024-03-08T03:08:51;4.43;;;4.10;;
12631;SDS011;6381;45.748;12.106;2024-03-08T03:11:21;4.07;;;3.77;;
12631;SDS011;6381;45.748;12.106;2024-03-08T03:13:51;3.70;;;3.40;;
12631;SDS011;6381;45.748;12.106;2024-03-08T03:16:21;4.07;;;3.77;;
12631;SDS011;6381;45.748;12.106;2024-03-08T03:18:51;3.60;;;3.30;;
12631;SDS011;6381;45.748;12.106;2024-03-08T03:21:23;4.07;;;3.67;;
12631;SDS011;6381;45.748;12.106;2024-03-08T03:23:52;4.07;;;3.77;;
12631;SDS011;6381;45.748;12.106;2024-03-08T03:26:23;4.17;;;3.77;;
12631;SDS011;6381;45.748;12.106;2024-03-08T03:28:53;3.97;;;3.60;;
12631;SDS011;6381;45.748;12.106;2024-03-08T03:31:24;3.70;;;3.40;;
12631;SDS011;6381;45.748;12.106;2024-03-08T03:33:54;3.60;;;3.30;;
12631;SDS011;6381;45.748;12.106;2024-03-08T03:36:30;3.83;;;3.53;;
12631;SDS011;6381;45.748;12.106;2024-03-08T03:39:00;3.43;;;3.13;;
12631;SDS011;6381;45.748;12.106;2024-03-08T03:41:38;3.67;;;3.37;;
12631;SDS011;6381;45.748;12.106;2024-03-08T03:44:08;4.13;;;3.57;;
12631;SDS011;6381;45.748;12.106;2024-03-08T03:46:37;3.63;;;3.33;;
12631;SDS011;6381;45.748;12.106;2024-03-08T03:49:13;4.17;;;3.63;;
12631;SDS011;6381;45.748;12.106;2024-03-08T03:51:44;3.80;;;3.50;;
12631;SDS011;6381;45.748;12.106;2024-03-08T03:54:14;3.70;;;3.40;;
12631;SDS011;6381;45.748;12.106;2024-03-08T03:56:44;3.80;;;3.50;;
12631;SDS011;6381;45.748;12.106;2024-03-08T03:59:14;4.07;;;3.77;;
12631;SDS011;6381;45.748;12.106;2024-03-08T04:01:44;4.27;;;3.87;;
12631;SDS011;6381;45.748;12.106;2024-03-08T04:04:14;4.30;;;3.90;;
12631;SDS011;6381;45.748;12.106;2024-03-08T04:06:46;4.33;;;3.93;;
12631;SDS011;6381;45.748;12.106;2024-03-08T04:09:19;4.87;;;4.47;;
12631;SDS011;6381;45.748;12.106;2024-03-08T04:11:49;4.73;;;4.33;;
12631;SDS011;6381;45.748;12.106;2024-03-08T04:14:20;4.63;;;4.23;;
12631;SDS011;6381;45.748;12.106;2024-03-08T04:16:52;4.83;;;4.43;;
12631;SDS011;6381;45.748;12.106;2024-03-08T04:19:22;5.23;;;4.83;;
12631;SDS011;6381;45.748;12.106;2024-03-08T04:21:55;5.37;;;4.90;;
12631;SDS011;6381;45.748;12.106;2024-03-08T04:24:25;4.97;;;4.57;;
12631;SDS011;6381;45.748;12.106;2024-03-08T04:26:56;5.33;;;4.93;;
12631;SDS011;6381;45.748;12.106;2024-03-08T04:29:26;5.73;;;5.23;;
12631;SDS011;6381;45.748;12.106;2024-03-08T04:31:56;6.07;;;5.57;;
12631;SDS011;6381;45.748;12.106;2024-03-08T04:34:26;6.17;;;5.57;;
12631;SDS011;6381;45.748;12.106;2024-03-08T04:36:58;5.90;;;5.40;;
12631;SDS011;6381;45.748;12.106;2024-03-08T04:39:28;6.03;;;5.53;;
12631;SDS011;6381;45.748;12.106;2024-03-08T04:41:59;7.27;;;6.57;;
12631;SDS011;6381;45.748;12.106;2024-03-08T04:44:32;6.03;;;5.50;;
12631;SDS011;6381;45.748;12.106;2024-03-08T04:47:02;7.10;;;6.40;;
12631;SDS011;6381;45.748;12.106;2024-03-08T04:49:33;7.50;;;6.80;;
12631;SDS011;6381;45.748;12.106;2024-03-08T04:52:05;7.67;;;6.97;;
12631;SDS011;6381;45.748;12.106;2024-03-08T04:54:35;8.13;;;7.43;;
12631;SDS011;6381;45.748;12.106;2024-03-08T04:57:05;8.40;;;7.60;;
12631;SDS011;6381;45.748;12.106;2024-03-08T04:59:36;8.83;;;8.03;;
12631;SDS011;6381;45.748;12.106;2024-03-08T05:02:06;7.87;;;7.17;;
12631;SDS011;6381;45.748;12.106;2024-03-08T05:04:36;8.50;;;7.67;;
12631;SDS011;6381;45.748;12.106;2024-03-08T05:07:07;8.97;;;8.17;;
12631;SDS011;6381;45.748;12.106;2024-03-08T05:09:37;10.00;;;9.00;;
12631;SDS011;6381;45.748;12.106;2024-03-08T05:12:08;9.33;;;8.53;;
12631;SDS011;6381;45.748;12.106;2024-03-08T05:14:38;8.83;;;8.03;;
12631;SDS011;6381;45.748;12.106;2024-03-08T05:17:08;8.57;;;7.80;;
12631;SDS011;6381;45.748;12.106;2024-03-08T05:19:38;9.43;;;8.63;;
12631;SDS011;6381;45.748;12.106;2024-03-08T05:22:10;9.30;;;8.40;;
12631;SDS011;6381;45.748;12.106;2024-03-08T05:24:40;9.00;;;8.07;;
12631;SDS011;6381;45.748;12.106;2024-03-08T05:27:11;9.57;;;8.77;;
12631;SDS011;6381;45.748;12.106;2024-03-08T05:29:41;9.40;;;8.50;;
12631;SDS011;6381;45.748;12.106;2024-03-08T05:32:11;10.00;;;9.10;;
12631;SDS011;6381;45.748;12.106;2024-03-08T05:34:41;8.90;;;8.10;;
12631;SDS011;6381;45.748;12.106;2024-03-08T05:37:13;9.30;;;8.50;;
12631;SDS011;6381;45.748;12.106;2024-03-08T05:39:43;9.40;;;8.50;;
12631;SDS011;6381;45.748;12.106;2024-03-08T05:42:13;9.07;;;8.20;;
12631;SDS011;6381;45.748;12.106;2024-03-08T05:44:43;8.77;;;7.97;;
12631;SDS011;6381;45.748;12.106;2024-03-08T05:47:13;9.30;;;8.40;;
12631;SDS011;6381;45.748;12.106;2024-03-08T05:49:43;9.53;;;8.63;;
12631;SDS011;6381;45.748;12.106;2024-03-08T05:52:14;9.93;;;8.97;;
12631;SDS011;6381;45.748;12.106;2024-03-08T05:54:52;9.83;;;8.80;;
12631;SDS011;6381;45.748;12.106;2024-03-08T05:57:22;9.60;;;8.70;;
12631;SDS011;6381;45.748;12.106;2024-03-08T05:59:52;10.10;;;9.10;;
12631;SDS011;6381;45.748;12.106;2024-03-08T06:02:22;9.20;;;8.30;;
12631;SDS011;6381;45.748;12.106;2024-03-08T06:04:52;8.40;;;7.60;;
12631;SDS011;6381;45.748;12.106;2024-03-08T06:07:23;8.27;;;7.57;;
12631;SDS011;6381;45.748;12.106;2024-03-08T06:09:53;8.47;;;7.67;;
12631;SDS011;6381;45.748;12.106;2024-03-08T06:12:24;8.83;;;7.93;;
12631;SDS011;6381;45.748;12.106;2024-03-08T06:14:56;8.17;;;7.43;;
12631;SDS011;6381;45.748;12.106;2024-03-08T06:17:26;8.63;;;7.93;;
12631;SDS011;6381;45.748;12.106;2024-03-08T06:19:56;8.43;;;7.63;;
12631;SDS011;6381;45.748;12.106;2024-03-08T06:22:28;8.63;;;7.93;;
12631;SDS011;6381;45.748;12.106;2024-03-08T06:24:57;8.40;;;7.60;;
12631;SDS011;6381;45.748;12.106;2024-03-08T06:27:28;7.83;;;7.10;;
12631;SDS011;6381;45.748;12.106;2024-03-08T06:30:01;7.30;;;6.60;;
12631;SDS011;6381;45.748;12.106;2024-03-08T06:32:32;8.70;;;7.80;;
12631;SDS011;6381;45.748;12.106;2024-03-08T06:35:03;7.87;;;7.17;;
12631;SDS011;6381;45.748;12.106;2024-03-08T06:37:36;8.13;;;7.33;;
12631;SDS011;6381;45.748;12.106;2024-03-08T06:40:06;8.37;;;7.47;;
12631;SDS011;6381;45.748;12.106;2024-03-08T06:42:43;8.03;;;7.33;;
12631;SDS011;6381;45.748;12.106;2024-03-08T06:45:12;8.97;;;8.07;;
12631;SDS011;6381;45.748;12.106;2024-03-08T06:47:46;8.73;;;7.33;;
12631;SDS011;6381;45.748;12.106;2024-03-08T06:50:19;9.10;;;8.30;;
12631;SDS011;6381;45.748;12.106;2024-03-08T06:52:50;8.13;;;7.40;;
12631;SDS011;6381;45.748;12.106;2024-03-08T06:55:21;7.83;;;7.13;;
12631;SDS011;6381;45.748;12.106;2024-03-08T06:57:51;8.17;;;7.37;;
12631;SDS011;6381;45.748;12.106;2024-03-08T07:00:23;7.80;;;7.10;;
12631;SDS011;6381;45.748;12.106;2024-03-08T07:02:57;8.30;;;7.50;;
12631;SDS011;6381;45.748;12.106;2024-03-08T07:05:28;9.23;;;8.43;;
12631;SDS011;6381;45.748;12.106;2024-03-08T07:08:01;9.37;;;8.53;;
12631;SDS011;6381;45.748;12.106;2024-03-08T07:10:33;9.33;;;8.33;;
12631;SDS011;6381;45.748;12.106;2024-03-08T07:13:05;8.97;;;8.17;;
12631;SDS011;6381;45.748;12.106;2024-03-08T07:15:35;9.20;;;8.30;;
12631;SDS011;6381;45.748;12.106;2024-03-08T07:18:05;10.83;;;9.83;;
12631;SDS011;6381;45.748;12.106;2024-03-08T07:20:36;9.43;;;8.43;;
12631;SDS011;6381;45.748;12.106;2024-03-08T07:23:07;10.50;;;9.60;;
12631;SDS011;6381;45.748;12.106;2024-03-08T07:25:38;10.77;;;9.77;;
12631;SDS011;6381;45.748;12.106;2024-03-08T07:28:11;9.50;;;8.60;;
12631;SDS011;6381;45.748;12.106;2024-03-08T07:30:41;9.40;;;8.60;;
12631;SDS011;6381;45.748;12.106;2024-03-08T07:33:35;9.63;;;8.73;;
12631;SDS011;6381;45.748;12.106;2024-03-08T07:36:05;9.37;;;8.57;;
12631;SDS011;6381;45.748;12.106;2024-03-08T07:38:38;10.07;;;9.07;;
12631;SDS011;6381;45.748;12.106;2024-03-08T07:41:09;9.60;;;8.80;;
12631;SDS011;6381;45.748;12.106;2024-03-08T07:43:41;9.63;;;8.73;;
12631;SDS011;6381;45.748;12.106;2024-03-08T07:46:11;8.70;;;7.90;;
12631;SDS011;6381;45.748;12.106;2024-03-08T07:48:41;9.90;;;8.87;;
12631;SDS011;6381;45.748;12.106;2024-03-08T07:51:12;9.27;;;8.47;;
12631;SDS011;6381;45.748;12.106;2024-03-08T07:53:46;9.43;;;8.53;;
12631;SDS011;6381;45.748;12.106;2024-03-08T07:56:16;9.63;;;8.73;;
12631;SDS011;6381;45.748;12.106;2024-03-08T07:58:46;9.53;;;8.57;;
12631;SDS011;6381;45.748;12.106;2024-03-08T08:01:16;10.17;;;9.23;;
12631;SDS011;6381;45.748;12.106;2024-03-08T08:03:46;10.07;;;9.07;;
12631;SDS011;6381;45.748;12.106;2024-03-08T08:06:17;10.30;;;9.30;;
12631;SDS011;6381;45.748;12.106;2024-03-08T08:08:48;9.07;;;8.17;;
12631;SDS011;6381;45.748;12.106;2024-03-08T08:11:18;9.77;;;8.87;;
12631;SDS011;6381;45.748;12.106;2024-03-08T08:13:49;9.97;;;9.07;;
12631;SDS011;6381;45.748;12.106;2024-03-08T08:16:18;9.27;;;8.33;;
12631;SDS011;6381;45.748;12.106;2024-03-08T08:18:48;9.30;;;8.40;;
12631;SDS011;6381;45.748;12.106;2024-03-08T08:21:18;9.67;;;8.77;;
12631;SDS011;6381;45.748;12.106;2024-03-08T08:23:51;9.83;;;8.93;;
12631;SDS011;6381;45.748;12.106;2024-03-08T08:26:22;9.50;;;8.60;;
12631;SDS011;6381;45.748;12.106;2024-03-08T08:28:53;10.00;;;9.20;;
12631;SDS011;6381;45.748;12.106;2024-03-08T08:31:24;10.50;;;9.50;;
12631;SDS011;6381;45.748;12.106;2024-03-08T08:33:56;9.63;;;8.83;;
12631;SDS011;6381;45.748;12.106;2024-03-08T08:36:27;10.23;;;9.33;;
12631;SDS011;6381;45.748;12.106;2024-03-08T08:39:00;11.20;;;10.23;;
12631;SDS011;6381;45.748;12.106;2024-03-08T08:41:30;10.73;;;9.67;;
12631;SDS011;6381;45.748;12.106;2024-03-08T08:44:00;11.73;;;10.63;;
12631;SDS011;6381;45.748;12.106;2024-03-08T08:46:34;11.00;;;10.00;;
12631;SDS011;6381;45.748;12.106;2024-03-08T08:49:07;11.63;;;10.43;;
12631;SDS011;6381;45.748;12.106;2024-03-08T08:51:38;11.77;;;10.77;;
12631;SDS011;6381;45.748;12.106;2024-03-08T08:54:10;12.77;;;11.60;;
12631;SDS011;6381;45.748;12.106;2024-03-08T08:56:44;12.13;;;10.90;;
12631;SDS011;6381;45.748;12.106;2024-03-08T08:59:14;12.37;;;11.27;;
12631;SDS011;6381;45.748;12.106;2024-03-08T09:01:49;12.47;;;11.37;;
12631;SDS011;6381;45.748;12.106;2024-03-08T09:04:21;12.53;;;11.23;;
12631;SDS011;6381;45.748;12.106;2024-03-08T09:06:51;12.27;;;11.10;;
12631;SDS011;6381;45.748;12.106;2024-03-08T09:09:23;12.27;;;11.17;;
12631;SDS011;6381;45.748;12.106;2024-03-08T09:11:54;12.00;;;10.90;;
12631;SDS011;6381;45.748;12.106;2024-03-08T09:14:24;13.23;;;12.03;;
12631;SDS011;6381;45.748;12.106;2024-03-08T09:16:54;13.10;;;11.80;;
12631;SDS011;6381;45.748;12.106;2024-03-08T09:19:24;13.27;;;12.00;;
12631;SDS011;6381;45.748;12.106;2024-03-08T09:21:56;14.30;;;13.00;;
12631;SDS011;6381;45.748;12.106;2024-03-08T09:24:27;13.33;;;12.03;;
12631;SDS011;6381;45.748;12.106;2024-03-08T09:26:57;13.47;;;12.27;;
12631;SDS011;6381;45.748;12.106;2024-03-08T09:29:27;13.63;;;12.43;;
12631;SDS011;6381;45.748;12.106;2024-03-08T09:31:57;14.67;;;13.30;;
12631;SDS011;6381;45.748;12.106;2024-03-08T09:34:26;13.93;;;12.53;;
12631;SDS011;6381;45.748;12.106;2024-03-08T09:37:04;14.77;;;13.37;;
12631;SDS011;6381;45.748;12.106;2024-03-08T09:39:37;14.47;;;13.17;;
12631;SDS011;6381;45.748;12.106;2024-03-08T09:42:07;14.40;;;13.00;;
12631;SDS011;6381;45.748;12.106;2024-03-08T09:44:38;14.37;;;12.97;;
12631;SDS011;6381;45.748;12.106;2024-03-08T09:47:08;14.87;;;13.40;;
12631;SDS011;6381;45.748;12.106;2024-03-08T09:49:41;14.80;;;13.30;;
12631;SDS011;6381;45.748;12.106;2024-03-08T09:52:12;14.73;;;13.43;;
12631;SDS011;6381;45.748;12.106;2024-03-08T09:54:44;14.70;;;13.20;;
12631;SDS011;6381;45.748;12.106;2024-03-08T09:57:14;14.10;;;12.70;;
12631;SDS011;6381;45.748;12.106;2024-03-08T09:59:47;15.20;;;13.80;;
12631;SDS011;6381;45.748;12.106;2024-03-08T10:02:18;13.77;;;12.43;;
12631;SDS011;6381;45.748;12.106;2024-03-08T10:04:48;15.10;;;13.60;;
12631;SDS011;6381;45.748;12.106;2024-03-08T10:07:21;15.73;;;13.83;;
12631;SDS011;6381;45.748;12.106;2024-03-08T10:09:53;15.93;;;14.43;;
12631;SDS011;6381;45.748;12.106;2024-03-08T10:12:24;19.27;;;16.57;;
12631;SDS011;6381;45.748;12.106;2024-03-08T10:14:54;20.87;;;18.73;;
12631;SDS011;6381;45.748;12.106;2024-03-08T10:17:25;23.20;;;18.10;;
12631;SDS011;6381;45.748;12.106;2024-03-08T10:20:00;17.53;;;15.63;;
12631;SDS011;6381;45.748;12.106;2024-03-08T10:22:42;19.33;;;17.33;;
12631;SDS011;6381;45.748;12.106;2024-03-08T10:25:30;19.13;;;17.13;;
12631;SDS011;6381;45.748;12.106;2024-03-08T10:28:03;17.73;;;15.93;;
12631;SDS011;6381;45.748;12.106;2024-03-08T10:30:34;17.77;;;15.97;;
12631;SDS011;6381;45.748;12.106;2024-03-08T10:33:05;17.07;;;15.33;;
12631;SDS011;6381;45.748;12.106;2024-03-08T10:35:35;17.33;;;15.73;;
12631;SDS011;6381;45.748;12.106;2024-03-08T10:38:05;17.63;;;16.03;;
12631;SDS011;6381;45.748;12.106;2024-03-08T10:40:40;17.53;;;15.90;;
12631;SDS011;6381;45.748;12.106;2024-03-08T10:43:12;17.63;;;15.83;;
12631;SDS011;6381;45.748;12.106;2024-03-08T10:45:51;17.23;;;15.57;;
12631;SDS011;6381;45.748;12.106;2024-03-08T10:48:32;15.87;;;14.27;;
12631;SDS011;6381;45.748;12.106;2024-03-08T10:51:10;17.27;;;15.57;;
12631;SDS011;6381;45.748;12.106;2024-03-08T10:53:41;16.80;;;15.20;;
12631;SDS011;6381;45.748;12.106;2024-03-08T10:56:14;18.20;;;16.47;;
12631;SDS011;6381;45.748;12.106;2024-03-08T10:58:44;16.97;;;15.27;;
12631;SDS011;6381;45.748;12.106;2024-03-08T11:01:16;17.33;;;15.83;;
12631;SDS011;6381;45.748;12.106;2024-03-08T11:03:51;16.50;;;14.90;;
12631;SDS011;6381;45.748;12.106;2024-03-08T11:06:29;17.50;;;15.80;;
12631;SDS011;6381;45.748;12.106;2024-03-08T11:14:53;16.40;;;14.73;;
12631;SDS011;6381;45.748;12.106;2024-03-08T11:20:16;16.70;;;15.00;;
12631;SDS011;6381;45.748;12.106;2024-03-08T11:22:49;16.70;;;15.10;;
12631;SDS011;6381;45.748;12.106;2024-03-08T11:25:32;17.33;;;15.53;;
12631;SDS011;6381;45.748;12.106;2024-03-08T11:28:14;15.13;;;13.63;;
12631;SDS011;6381;45.748;12.106;2024-03-08T11:31:13;16.27;;;14.63;;
12631;SDS011;6381;45.748;12.106;2024-03-08T11:33:54;15.53;;;13.93;;
12631;SDS011;6381;45.748;12.106;2024-03-08T11:36:25;15.13;;;13.83;;
12631;SDS011;6381;45.748;12.106;2024-03-08T11:38:55;15.10;;;13.63;;
12631;SDS011;6381;45.748;12.106;2024-03-08T11:41:37;16.13;;;14.00;;
12631;SDS011;6381;45.748;12.106;2024-03-08T11:44:10;15.70;;;14.20;;
12631;SDS011;6381;45.748;12.106;2024-03-08T11:46:43;14.77;;;13.37;;
12631;SDS011;6381;45.748;12.106;2024-03-08T11:49:16;15.73;;;14.23;;
12631;SDS011;6381;45.748;12.106;2024-03-08T11:51:51;15.53;;;13.93;;
12631;SDS011;6381;45.748;12.106;2024-03-08T11:54:26;15.27;;;13.77;;
12631;SDS011;6381;45.748;12.106;2024-03-08T11:57:00;15.27;;;13.77;;
12631;SDS011;6381;45.748;12.106;2024-03-08T11:59:50;15.87;;;14.30;;
12631;SDS011;6381;45.748;12.106;2024-03-08T12:02:24;16.53;;;14.97;;
12631;SDS011;6381;45.748;12.106;2024-03-08T12:04:58;14.83;;;13.43;;
12631;SDS011;6381;45.748;12.106;2024-03-08T12:07:42;15.33;;;13.83;;
12631;SDS011;6381;45.748;12.106;2024-03-08T12:10:14;14.33;;;13.03;;
12631;SDS011;6381;45.748;12.106;2024-03-08T12:12:48;14.93;;;13.43;;
12631;SDS011;6381;45.748;12.106;2024-03-08T12:15:24;15.23;;;13.73;;
12631;SDS011;6381;45.748;12.106;2024-03-08T12:17:55;14.63;;;13.23;;
12631;SDS011;6381;45.748;12.106;2024-03-08T12:20:26;15.37;;;13.87;;
12631;SDS011;6381;45.748;12.106;2024-03-08T12:22:58;14.80;;;13.40;;
12631;SDS011;6381;45.748;12.106;2024-03-08T12:25:30;14.37;;;12.97;;
12631;SDS011;6381;45.748;12.106;2024-03-08T12:28:09;15.10;;;13.47;;
12631;SDS011;6381;45.748;12.106;2024-03-08T12:30:46;14.73;;;13.33;;
12631;SDS011;6381;45.748;12.106;2024-03-08T12:33:22;16.00;;;14.47;;
12631;SDS011;6381;45.748;12.106;2024-03-08T12:35:56;15.10;;;13.60;;
12631;SDS011;6381;45.748;12.106;2024-03-08T12:38:29;14.77;;;13.37;;
12631;SDS011;6381;45.748;12.106;2024-03-08T12:40:59;14.47;;;12.97;;
12631;SDS011;6381;45.748;12.106;2024-03-08T12:43:33;14.47;;;13.03;;
12631;SDS011;6381;45.748;12.106;2024-03-08T12:46:07;13.17;;;11.87;;
12631;SDS011;6381;45.748;12.106;2024-03-08T12:48:45;15.27;;;13.37;;
12631;SDS011;6381;45.748;12.106;2024-03-08T12:51:26;15.27;;;13.77;;
12631;SDS011;6381;45.748;12.106;2024-03-08T12:53:57;14.70;;;13.30;;
12631;SDS011;6381;45.748;12.106;2024-03-08T12:56:32;13.93;;;12.53;;
12631;SDS011;6381;45.748;12.106;2024-03-08T12:59:04;14.20;;;12.80;;
12631;SDS011;6381;45.748;12.106;2024-03-08T13:01:42;25.70;;;22.23;;
12631;SDS011;6381;45.748;12.106;2024-03-08T13:04:14;35.37;;;27.83;;
12631;SDS011;6381;45.748;12.106;2024-03-08T13:06:44;27.63;;;23.73;;
12631;SDS011;6381;45.748;12.106;2024-03-08T13:09:22;25.03;;;20.80;;
12631;SDS011;6381;45.748;12.106;2024-03-08T13:12:00;31.73;;;26.43;;
12631;SDS011;6381;45.748;12.106;2024-03-08T13:14:30;38.57;;;28.77;;
12631;SDS011;6381;45.748;12.106;2024-03-08T13:17:05;44.90;;;33.07;;
12631;SDS011;6381;45.748;12.106;2024-03-08T13:19:38;38.60;;;27.80;;
12631;SDS011;6381;45.748;12.106;2024-03-08T13:22:09;54.37;;;39.50;;
12631;SDS011;6381;45.748;12.106;2024-03-08T13:24:46;22.67;;;20.27;;
12631;SDS011;6381;45.748;12.106;2024-03-08T13:27:24;17.03;;;15.40;;
12631;SDS011;6381;45.748;12.106;2024-03-08T13:30:10;14.93;;;13.53;;
12631;SDS011;6381;45.748;12.106;2024-03-08T13:32:45;16.23;;;14.63;;
12631;SDS011;6381;45.748;12.106;2024-03-08T13:35:18;16.93;;;15.33;;
12631;SDS011;6381;45.748;12.106;2024-03-08T13:37:56;15.53;;;14.13;;
12631;SDS011;6381;45.748;12.106;2024-03-08T13:40:38;14.70;;;13.23;;
12631;SDS011;6381;45.748;12.106;2024-03-08T13:43:26;15.30;;;13.80;;
12631;SDS011;6381;45.748;12.106;2024-03-08T13:46:02;16.27;;;14.67;;
12631;SDS011;6381;45.748;12.106;2024-03-08T13:48:50;17.73;;;15.93;;
12631;SDS011;6381;45.748;12.106;2024-03-08T13:51:57;14.97;;;13.47;;
12631;SDS011;6381;45.748;12.106;2024-03-08T13:58:07;14.77;;;13.27;;
12631;SDS011;6381;45.748;12.106;2024-03-08T14:00:46;14.33;;;12.87;;
12631;SDS011;6381;45.748;12.106;2024-03-08T14:03:24;14.50;;;13.10;;
12631;SDS011;6381;45.748;12.106;2024-03-08T14:06:20;14.40;;;12.90;;
12631;SDS011;6381;45.748;12.106;2024-03-08T14:09:12;14.37;;;12.97;;
12631;SDS011;6381;45.748;12.106;2024-03-08T14:11:49;14.60;;;13.10;;
12631;SDS011;6381;45.748;12.106;2024-03-08T14:14:29;13.70;;;12.40;;
12631;SDS011;6381;45.748;12.106;2024-03-08T14:17:07;14.20;;;12.80;;
12631;SDS011;6381;45.748;12.106;2024-03-08T14:19:52;15.97;;;14.40;;
12631;SDS011;6381;45.748;12.106;2024-03-08T14:22:39;14.30;;;12.90;;
12631;SDS011;6381;45.748;12.106;2024-03-08T14:25:14;15.33;;;13.83;;
12631;SDS011;6381;45.748;12.106;2024-03-08T14:27:55;15.83;;;13.77;;
12631;SDS011;6381;45.748;12.106;2024-03-08T14:30:35;14.73;;;13.33;;
12631;SDS011;6381;45.748;12.106;2024-03-08T14:33:12;15.43;;;13.93;;
12631;SDS011;6381;45.748;12.106;2024-03-08T14:35:46;15.50;;;13.97;;
12631;SDS011;6381;45.748;12.106;2024-03-08T14:38:26;15.27;;;13.70;;
12631;SDS011;6381;45.748;12.106;2024-03-08T14:40:58;17.17;;;15.37;;
12631;SDS011;6381;45.748;12.106;2024-03-08T14:43:34;16.50;;;14.80;;
12631;SDS011;6381;45.748;12.106;2024-03-08T14:46:10;18.93;;;15.93;;
12631;SDS011;6381;45.748;12.106;2024-03-08T14:48:47;17.50;;;15.73;;
12631;SDS011;6381;45.748;12.106;2024-03-08T14:51:21;15.27;;;13.87;;
12631;SDS011;6381;45.748;12.106;2024-03-08T14:53:56;15.80;;;13.97;;
12631;SDS011;6381;45.748;12.106;2024-03-08T14:56:27;14.57;;;13.07;;
12631;SDS011;6381;45.748;12.106;2024-03-08T14:58:59;14.73;;;13.13;;
12631;SDS011;6381;45.748;12.106;2024-03-08T15:01:37;15.90;;;14.33;;
12631;SDS011;6381;45.748;12.106;2024-03-08T15:04:18;15.90;;;14.27;;
12631;SDS011;6381;45.748;12.106;2024-03-08T15:07:03;16.03;;;14.43;;
12631;SDS011;6381;45.748;12.106;2024-03-08T15:13:15;16.53;;;14.93;;
12631;SDS011;6381;45.748;12.106;2024-03-08T15:15:50;16.50;;;14.80;;
12631;SDS011;6381;45.748;12.106;2024-03-08T15:18:27;14.83;;;13.43;;
12631;SDS011;6381;45.748;12.106;2024-03-08T15:21:03;17.03;;;14.53;;
12631;SDS011;6381;45.748;12.106;2024-03-08T15:23:38;16.10;;;14.50;;